Time;durP1;ratioP1;P1;durP2;ratioP2;P2;SDS_P1;SDS_P2;PMS_P1;PMS_P2;Temp;Humidity;BMP_temperature;BMP_pressure;BME280_temperature;BME280_humidity;BME280_pressure;Samples;Min_cycle;Max_cycle;Signal;HPM_P1;HPM_P2
2021/07/26 00:00:57;;;;;;;12.07;10.00;;;20.50;84.40;;;;;;10370040;28;20198;-24
2021/07/26 00:06:19;;;;;;;11.77;10.57;;;20.50;84.40;;;;;;10400427;28;20213;-25
2021/07/26 00:11:43;;;;;;;12.77;9.87;;;20.50;84.40;;;;;;10409745;28;20665;-25
2021/07/26 00:17:05;;;;;;;11.87;10.67;;;20.50;84.40;;;;;;10408912;28;20280;-25
2021/07/26 00:22:27;;;;;;;11.63;10.53;;;20.50;84.30;;;;;;10412269;28;20665;-24
2021/07/26 00:27:50;;;;;;;12.20;10.90;;;20.50;84.20;;;;;;10477493;22;20224;-33
2021/07/26 00:33:57;;;;;;;11.83;10.63;;;20.50;84.20;;;;;;10483511;28;20548;-30
2021/07/26 00:39:21;;;;;;;11.13;9.73;;;20.50;84.10;;;;;;10464681;28;20287;-31
2021/07/26 00:44:44;;;;;;;12.10;10.47;;;20.50;84.00;;;;;;10493372;28;20192;-28
2021/07/26 00:50:07;;;;;;;10.53;9.53;;;20.50;84.10;;;;;;10500292;28;20695;-33
2021/07/26 00:55:29;;;;;;;10.50;9.47;;;20.50;84.10;;;;;;10501681;28;20571;-35
2021/07/26 01:00:53;;;;;;;10.80;9.10;;;20.50;84.10;;;;;;10530987;28;20576;-32
2021/07/26 01:06:15;;;;;;;12.70;10.37;;;20.50;84.10;;;;;;10541917;28;20661;-34
2021/07/26 01:11:38;;;;;;;11.10;10.00;;;20.50;84.10;;;;;;10539679;28;20204;-32
2021/07/26 01:17:01;;;;;;;11.20;9.83;;;20.50;84.00;;;;;;10539907;28;20220;-31
2021/07/26 01:22:24;;;;;;;10.57;9.20;;;20.50;84.00;;;;;;10499660;28;20200;-31
2021/07/26 01:27:46;;;;;;;10.63;9.63;;;20.50;84.00;;;;;;10497491;28;20642;-34
2021/07/26 01:33:09;;;;;;;10.70;9.60;;;20.50;84.00;;;;;;10497942;28;20583;-31
2021/07/26 01:38:33;;;;;;;11.30;10.20;;;20.50;84.00;;;;;;10508851;28;20723;-31
2021/07/26 01:44:02;;;;;;;11.47;10.10;;;20.50;83.80;;;;;;10497858;28;20609;-32
2021/07/26 01:49:32;;;;;;;11.73;10.07;;;20.50;83.70;;;;;;10524631;28;20207;-31
2021/07/26 01:54:56;;;;;;;12.13;10.93;;;20.40;83.60;;;;;;10538420;28;20200;-32
2021/07/26 02:00:18;;;;;;;10.90;9.80;;;20.40;83.50;;;;;;10536955;28;20231;-34
2021/07/26 02:05:40;;;;;;;11.53;10.00;;;20.50;83.50;;;;;;10493638;28;20222;-31
2021/07/26 02:11:04;;;;;;;11.33;10.23;;;20.40;83.40;;;;;;10537956;28;20214;-33
2021/07/26 02:16:26;;;;;;;11.13;10.03;;;20.50;83.30;;;;;;10516278;28;20212;-33
2021/07/26 02:21:49;;;;;;;11.17;9.73;;;20.50;83.20;;;;;;10497471;28;20192;-32
2021/07/26 02:27:12;;;;;;;10.67;9.57;;;20.40;83.00;;;;;;10496423;28;20224;-30
2021/07/26 02:32:34;;;;;;;12.20;11.00;;;20.40;83.00;;;;;;10509661;28;20211;-34
2021/07/26 02:37:58;;;;;;;11.97;10.77;;;20.40;83.00;;;;;;10495145;28;20731;-32
2021/07/26 02:43:21;;;;;;;11.53;10.33;;;20.40;83.10;;;;;;10495374;28;20211;-32
2021/07/26 02:48:43;;;;;;;11.70;10.50;;;20.50;83.10;;;;;;10495339;28;20583;-31
2021/07/26 02:54:06;;;;;;;10.80;9.70;;;20.50;83.10;;;;;;10495313;28;20192;-32
2021/07/26 02:59:30;;;;;;;12.00;9.77;;;20.40;83.10;;;;;;10494468;28;20227;-31
2021/07/26 03:04:52;;;;;;;11.03;9.43;;;20.40;83.00;;;;;;10531753;28;20192;-36
2021/07/26 03:10:14;;;;;;;10.87;9.77;;;20.40;83.00;;;;;;10535555;28;20222;-31
2021/07/26 03:15:38;;;;;;;10.53;9.43;;;20.40;83.00;;;;;;10529732;28;20197;-32
2021/07/26 03:21:00;;;;;;;10.33;9.23;;;20.40;83.00;;;;;;10498620;28;20611;-31
2021/07/26 03:26:22;;;;;;;10.80;9.70;;;20.40;83.00;;;;;;10535329;28;20597;-33
2021/07/26 03:31:46;;;;;;;10.77;9.67;;;20.40;83.00;;;;;;10533566;28;20701;-32
2021/07/26 03:37:08;;;;;;;11.07;10.07;;;20.40;83.10;;;;;;10533618;28;20218;-31
2021/07/26 03:42:30;;;;;;;11.60;10.40;;;20.50;83.20;;;;;;10493367;28;20663;-33
2021/07/26 03:47:55;;;;;;;14.40;10.37;;;20.40;83.20;;;;;;10493397;28;20703;-32
2021/07/26 03:53:18;;;;;;;12.10;10.90;;;20.40;83.20;;;;;;10493173;28;20193;-32
2021/07/26 03:58:40;;;;;;;13.73;11.47;;;20.40;83.20;;;;;;10490451;28;20227;-35
2021/07/26 04:04:04;;;;;;;12.83;10.80;;;20.40;83.30;;;;;;10509345;28;20188;-31
2021/07/26 04:09:29;;;;;;;11.60;10.33;;;20.40;83.40;;;;;;10509126;28;20212;-33
2021/07/26 04:14:52;;;;;;;12.47;11.07;;;20.40;83.40;;;;;;10492526;28;20214;-31
2021/07/26 04:20:15;;;;;;;12.77;11.57;;;20.40;83.50;;;;;;10453899;28;20231;-31
2021/07/26 04:25:37;;;;;;;12.50;11.30;;;20.50;83.60;;;;;;10492801;28;20207;-32
2021/07/26 04:30:59;;;;;;;13.77;12.37;;;20.50;83.60;;;;;;10519840;28;20706;-33
2021/07/26 04:36:23;;;;;;;13.80;12.50;;;20.40;83.50;;;;;;10492103;28;20667;-33
2021/07/26 04:41:45;;;;;;;13.20;11.90;;;20.50;83.60;;;;;;10529607;28;20667;-30
2021/07/26 04:47:09;;;;;;;13.70;12.40;;;20.40;83.50;;;;;;10518543;28;20215;-31
2021/07/26 04:52:32;;;;;;;14.70;13.20;;;20.50;83.70;;;;;;10531822;28;20704;-32
2021/07/26 04:57:54;;;;;;;13.80;12.30;;;20.40;83.80;;;;;;10526388;28;20710;-30
2021/07/26 05:03:16;;;;;;;13.20;11.80;;;20.40;83.90;;;;;;10511308;28;20275;-30
2021/07/26 05:08:40;;;;;;;13.20;11.80;;;20.50;84.10;;;;;;10509217;28;20757;-31
2021/07/26 05:14:02;;;;;;;14.87;12.33;;;20.40;84.20;;;;;;10510153;28;20701;-33
2021/07/26 05:19:24;;;;;;;13.73;12.30;;;20.40;84.40;;;;;;10511326;28;20722;-35
2021/07/26 05:24:48;;;;;;;13.77;12.43;;;20.50;84.60;;;;;;10509071;28;20203;-35
2021/07/26 05:30:11;;;;;;;14.90;13.30;;;20.50;84.80;;;;;;10506052;28;20223;-32
2021/07/26 05:35:34;;;;;;;13.93;12.10;;;20.40;84.80;;;;;;10514494;28;20193;-30
2021/07/26 05:40:57;;;;;;;13.37;11.97;;;20.50;84.80;;;;;;10498133;28;20633;-32
2021/07/26 05:46:19;;;;;;;11.50;10.30;;;20.40;85.30;;;;;;10497267;28;20568;-34
2021/07/26 05:51:41;;;;;;;11.37;10.17;;;20.50;84.30;;;;;;10498282;28;20702;-31
2021/07/26 05:57:10;;;;;;;11.13;9.83;;;20.50;84.00;;;;;;10524068;28;20216;-33
2021/07/26 06:02:32;;;;;;;10.47;9.37;;;20.50;83.80;;;;;;10535048;28;20200;-33
2021/07/26 06:07:54;;;;;;;11.17;10.07;;;20.50;83.70;;;;;;10503466;28;20295;-34
2021/07/26 06:13:17;;;;;;;10.27;9.27;;;20.50;83.70;;;;;;10493225;28;20208;-31
2021/07/26 06:18:40;;;;;;;10.57;9.57;;;20.50;83.60;;;;;;10496439;28;20228;-33
2021/07/26 06:24:02;;;;;;;11.10;10.00;;;20.50;83.60;;;;;;10496257;28;20192;-32
2021/07/26 06:29:25;;;;;;;10.00;9.00;;;20.50;83.60;;;;;;10487167;22;20268;-25
2021/07/26 06:34:47;;;;;;;9.60;8.70;;;20.50;83.60;;;;;;10463538;28;20201;-24
2021/07/26 06:40:10;;;;;;;9.63;8.63;;;20.50;83.60;;;;;;10432208;28;20224;-25
2021/07/26 06:45:33;;;;;;;9.17;8.37;;;20.50;83.60;;;;;;10412866;28;20201;-25
2021/07/26 06:50:55;;;;;;;9.70;8.77;;;20.50;83.60;;;;;;10452933;28;20209;-25
2021/07/26 06:56:17;;;;;;;9.00;8.20;;;20.50;83.60;;;;;;10453385;28;20189;-26
2021/07/26 07:01:42;;;;;;;9.30;8.40;;;20.50;83.60;;;;;;10452901;28;20217;-25
2021/07/26 07:07:05;;;;;;;8.50;7.63;;;20.50;83.60;;;;;;10453380;28;20197;-26
2021/07/26 07:12:28;;;;;;;9.43;8.53;;;20.50;83.60;;;;;;10414850;28;20222;-25
2021/07/26 07:17:51;;;;;;;8.77;7.87;;;20.50;83.60;;;;;;10416341;28;20217;-25
2021/07/26 07:23:13;;;;;;;8.03;7.23;;;20.50;83.70;;;;;;10426664;28;20194;-26
2021/07/26 07:28:35;;;;;;;8.20;7.40;;;20.50;83.70;;;;;;10438265;28;20224;-24
2021/07/26 07:33:58;;;;;;;7.63;6.87;;;20.50;83.60;;;;;;10418354;28;20561;-24
2021/07/26 07:39:20;;;;;;;8.37;6.87;;;20.60;83.30;;;;;;10423306;28;20232;-24
2021/07/26 07:44:43;;;;;;;9.23;7.00;;;20.60;82.80;;;;;;10432906;28;20197;-24
2021/07/26 07:50:07;;;;;;;7.60;6.77;;;20.60;82.80;;;;;;10450607;28;20209;-25
2021/07/26 07:55:30;;;;;;;9.20;6.77;;;20.70;82.90;;;;;;10451542;28;20213;-24
2021/07/26 08:00:52;;;;;;;6.57;5.93;;;20.70;82.90;;;;;;10436627;28;20229;-24
2021/07/26 08:06:16;;;;;;;7.33;5.57;;;20.70;82.70;;;;;;10403083;28;20205;-24
2021/07/26 08:11:38;;;;;;;9.47;5.87;;;20.70;82.80;;;;;;10404980;28;20315;-25
2021/07/26 08:17:02;;;;;;;14.33;7.50;;;20.70;82.90;;;;;;10441152;28;20201;-24
2021/07/26 08:22:25;;;;;;;106.80;15.30;;;20.80;82.80;;;;;;10422067;28;20514;-23
2021/07/26 08:27:49;;;;;;;31.63;9.63;;;20.90;82.50;;;;;;10444960;28;20189;-24
2021/07/26 08:33:11;;;;;;;10.77;7.10;;;20.90;82.90;;;;;;10404911;28;20220;-25
2021/07/26 08:38:35;;;;;;;16.87;6.17;;;20.90;82.90;;;;;;10440794;28;20233;-23
2021/07/26 08:43:57;;;;;;;11.67;6.63;;;20.80;83.00;;;;;;10441315;28;20208;-23
2021/07/26 08:49:21;;;;;;;9.37;5.63;;;20.80;83.10;;;;;;10443852;28;20213;-24
2021/07/26 08:54:46;;;;;;;10.03;5.80;;;20.80;83.00;;;;;;10445825;28;20267;-23
2021/07/26 09:00:09;;;;;;;7.37;5.20;;;20.80;83.10;;;;;;10444493;28;20231;-23
2021/07/26 09:05:31;;;;;;;5.33;4.80;;;20.80;83.70;;;;;;10444215;28;20209;-24
2021/07/26 09:11:01;;;;;;;5.17;4.67;;;20.80;83.20;;;;;;10445729;28;20245;-23
2021/07/26 09:16:25;;;;;;;9.33;5.73;;;20.80;83.10;;;;;;10410788;28;20344;-24
2021/07/26 09:21:52;;;;;;;6.90;5.80;;;20.80;83.20;;;;;;10425127;28;20240;-24
2021/07/26 09:27:17;;;;;;;7.17;5.93;;;20.80;83.30;;;;;;10451021;28;20224;-24
2021/07/26 09:32:40;;;;;;;6.73;6.10;;;20.80;83.60;;;;;;10451264;28;20687;-23
2021/07/26 09:38:03;;;;;;;8.83;7.03;;;20.80;83.30;;;;;;10444457;28;20221;-24
2021/07/26 09:43:27;;;;;;;7.80;6.67;;;20.90;83.40;;;;;;10450359;28;20204;-24
2021/07/26 09:49:08;;;;;;;7.83;6.37;;;20.90;83.50;;;;;;10450837;28;20224;-25
2021/07/26 09:54:41;;;;;;;6.47;5.77;;;20.90;83.50;;;;;;10451246;28;20208;-24
2021/07/26 10:00:09;;;;;;;7.87;6.60;;;20.80;83.60;;;;;;10446171;28;20252;-26
2021/07/26 10:05:32;;;;;;;6.60;6.00;;;20.80;83.60;;;;;;10419525;28;20217;-23
2021/07/26 10:10:54;;;;;;;6.23;5.33;;;20.90;83.60;;;;;;10414660;28;20206;-23
2021/07/26 10:16:19;;;;;;;6.73;5.50;;;20.90;83.70;;;;;;10423474;28;20581;-23
2021/07/26 10:21:42;;;;;;;6.53;5.13;;;20.90;83.70;;;;;;10426274;28;20231;-24
2021/07/26 10:27:12;;;;;;;5.50;4.70;;;20.90;83.50;;;;;;10451144;28;20208;-24
2021/07/26 10:32:39;;;;;;;6.70;4.83;;;20.90;83.50;;;;;;10444292;28;20207;-24
2021/07/26 10:38:01;;;;;;;5.10;4.60;;;20.80;83.50;;;;;;10437271;28;20252;-23
2021/07/26 10:43:53;;;;;;;5.47;4.97;;;20.90;83.60;;;;;;10390976;28;20202;-23
2021/07/26 10:49:17;;;;;;;5.90;4.43;;;20.80;83.40;;;;;;10442066;28;20282;-25
2021/07/26 10:54:39;;;;;;;4.43;4.03;;;20.80;83.60;;;;;;10453765;28;20683;-25
2021/07/26 11:00:18;;;;;;;5.90;4.50;;;20.80;83.60;;;;;;10413645;28;20232;-23
2021/07/26 11:05:42;;;;;;;4.90;4.13;;;20.80;83.50;;;;;;10418932;28;20194;-24
2021/07/26 11:11:04;;;;;;;5.10;4.60;;;20.80;83.60;;;;;;10411405;28;20210;-23
2021/07/26 11:16:58;;;;;;;4.47;4.07;;;20.80;83.60;;;;;;10424372;28;20691;-24
2021/07/26 11:22:59;;;;;;;5.13;3.67;;;20.80;83.40;;;;;;10374912;28;20353;-23
2021/07/26 11:28:24;;;;;;;4.90;4.10;;;20.80;83.50;;;;;;10437775;28;20302;-24
2021/07/26 11:33:46;;;;;;;4.57;3.63;;;20.90;83.40;;;;;;10451523;28;20224;-24
2021/07/26 11:39:09;;;;;;;5.17;3.80;;;20.90;83.30;;;;;;10430558;28;20221;-24
2021/07/26 11:44:32;;;;;;;4.90;3.87;;;20.90;83.10;;;;;;10451770;28;20193;-23
2021/07/26 11:49:54;;;;;;;4.20;3.40;;;20.90;83.30;;;;;;10434730;28;20218;-25
2021/07/26 11:55:17;;;;;;;4.90;3.33;;;20.90;83.20;;;;;;10410595;28;20209;-24
2021/07/26 12:00:42;;;;;;;5.40;3.43;;;20.90;82.90;;;;;;10410029;28;20240;-24
2021/07/26 12:06:04;;;;;;;4.53;3.40;;;20.90;82.20;;;;;;10403508;28;20197;-23
2021/07/26 12:11:34;;;;;;;4.17;3.40;;;20.90;82.20;;;;;;10449812;28;20220;-24
2021/07/26 12:17:23;;;;;;;3.67;3.10;;;21.00;82.10;;;;;;10397795;28;20675;-24
2021/07/26 12:22:45;;;;;;;3.80;3.10;;;21.00;82.00;;;;;;10428307;28;20685;-23
2021/07/26 12:28:08;;;;;;;4.33;3.40;;;20.90;82.90;;;;;;10426976;22;20322;-74
2021/07/26 12:33:30;;;;;;;3.30;2.67;;;20.90;82.70;;;;;;10324161;28;20223;-35
2021/07/26 12:39:04;;;;;;;3.70;3.20;;;20.90;82.70;;;;;;10337544;28;20746;-36
2021/07/26 12:44:30;;;;;;;8.10;3.40;;;20.90;82.60;;;;;;10364929;28;20581;-35
2021/07/26 12:49:53;;;;;;;3.70;3.27;;;20.90;82.00;;;;;;10353629;28;20237;-35
2021/07/26 12:55:16;;;;;;;2.73;2.53;;;21.00;81.70;;;;;;10376877;28;20209;-33
2021/07/26 13:00:39;;;;;;;3.73;3.00;;;21.00;81.60;;;;;;10338448;28;20278;-36
2021/07/26 13:06:05;;;;;;;3.40;3.10;;;21.10;81.50;;;;;;10336442;28;20199;-36
2021/07/26 13:11:27;;;;;;;3.00;2.70;;;21.10;81.40;;;;;;10332919;28;20218;-35
2021/07/26 13:16:49;;;;;;;3.60;2.97;;;21.10;81.40;;;;;;10357370;28;20203;-34
2021/07/26 13:22:13;;;;;;;4.27;3.33;;;21.10;81.40;;;;;;10353019;28;20227;-33
2021/07/26 13:27:35;;;;;;;2.77;2.57;;;21.10;81.50;;;;;;10343914;28;20267;-32
2021/07/26 13:32:58;;;;;;;3.80;2.70;;;21.10;81.40;;;;;;10341111;28;20617;-34
2021/07/26 13:38:21;;;;;;;2.73;2.43;;;21.20;81.30;;;;;;10348696;28;20667;-36
2021/07/26 13:43:43;;;;;;;3.73;2.73;;;21.20;81.20;;;;;;10299570;28;20206;-35
2021/07/26 13:49:05;;;;;;;2.80;2.57;;;21.20;81.50;;;;;;10313847;28;20219;-36
2021/07/26 13:54:29;;;;;;;3.60;2.53;;;21.20;81.50;;;;;;10315667;28;20204;-35
2021/07/26 13:59:51;;;;;;;5.53;2.50;;;21.10;82.40;;;;;;10333098;28;20226;-35
2021/07/26 14:05:13;;;;;;;3.73;2.63;;;21.10;82.40;;;;;;10334718;28;20233;-34
2021/07/26 14:10:38;;;;;;;3.30;3.00;;;21.10;82.40;;;;;;10335166;28;20294;-34
2021/07/26 14:16:00;;;;;;;3.30;2.90;;;21.00;82.50;;;;;;10332326;28;20218;-33
2021/07/26 14:21:22;;;;;;;3.63;2.37;;;21.00;82.50;;;;;;10332693;28;20231;-32
2021/07/26 14:26:46;;;;;;;3.37;2.70;;;21.00;82.60;;;;;;10365133;28;20203;-33
2021/07/26 14:32:08;;;;;;;3.67;3.17;;;21.00;82.70;;;;;;10299676;28;20572;-35
2021/07/26 14:37:30;;;;;;;3.50;2.70;;;21.00;82.30;;;;;;10352644;28;20199;-35
2021/07/26 14:42:53;;;;;;;3.57;2.70;;;21.00;82.30;;;;;;10328787;28;20254;-35
2021/07/26 14:48:16;;;;;;;2.53;2.30;;;21.10;82.40;;;;;;10356721;28;20202;-33
2021/07/26 14:53:38;;;;;;;3.30;2.80;;;21.00;82.40;;;;;;10373149;28;20191;-33
2021/07/26 14:59:02;;;;;;;3.20;2.90;;;21.10;82.40;;;;;;10372737;28;20260;-32
2021/07/26 15:04:24;;;;;;;2.80;2.60;;;21.10;82.60;;;;;;10358044;28;20195;-33
2021/07/26 15:09:46;;;;;;;3.13;2.83;;;21.10;82.20;;;;;;10335873;28;20203;-36
2021/07/26 15:15:11;;;;;;;3.70;2.40;;;21.10;82.30;;;;;;10371857;28;20205;-34
2021/07/26 15:20:33;;;;;;;3.00;2.70;;;21.10;82.40;;;;;;10358361;28;20231;-34
2021/07/26 15:25:55;;;;;;;2.93;2.60;;;21.10;82.40;;;;;;10331274;28;20203;-36
2021/07/26 15:31:19;;;;;;;3.00;2.70;;;21.10;82.30;;;;;;10329744;28;20229;-36
2021/07/26 15:36:41;;;;;;;3.33;2.70;;;21.10;82.50;;;;;;10329654;28;20595;-35
2021/07/26 15:42:04;;;;;;;4.10;3.13;;;21.10;82.60;;;;;;10342469;28;20626;-34
2021/07/26 15:47:28;;;;;;;2.90;2.60;;;21.10;82.30;;;;;;10329289;28;20724;-36
2021/07/26 15:52:50;;;;;;;2.93;2.73;;;21.10;82.30;;;;;;10327859;28;20207;-36
2021/07/26 15:58:13;;;;;;;2.80;2.60;;;21.10;82.40;;;;;;10329412;28;20233;-34
2021/07/26 16:03:37;;;;;;;3.00;2.63;;;21.10;82.40;;;;;;10341375;28;20236;-33
2021/07/26 16:08:59;;;;;;;3.20;2.90;;;21.10;82.70;;;;;;10348680;28;20686;-37
2021/07/26 16:14:21;;;;;;;2.93;2.63;;;21.10;82.80;;;;;;10337969;28;20190;-33
2021/07/26 16:19:44;;;;;;;3.13;2.80;;;21.00;82.90;;;;;;10341233;28;20218;-34
2021/07/26 16:25:07;;;;;;;2.90;2.60;;;21.00;82.90;;;;;;10348190;28;20206;-33
2021/07/26 16:30:29;;;;;;;2.97;2.73;;;21.00;83.00;;;;;;10345912;28;20225;-36
2021/07/26 16:35:53;;;;;;;2.93;2.63;;;21.00;83.00;;;;;;10346140;28;20199;-34
2021/07/26 16:41:15;;;;;;;3.03;2.73;;;21.00;83.10;;;;;;10337372;28;20218;-35
2021/07/26 16:46:37;;;;;;;3.03;2.73;;;21.00;83.00;;;;;;10331753;28;20218;-33
2021/07/26 16:52:01;;;;;;;2.67;2.47;;;21.00;83.10;;;;;;10327554;28;20624;-36
2021/07/26 16:57:23;;;;;;;3.00;2.70;;;20.90;83.10;;;;;;10338390;28;20701;-32
2021/07/26 17:02:46;;;;;;;3.40;2.87;;;21.00;83.20;;;;;;10340054;28;20223;-33
2021/07/26 17:08:09;;;;;;;3.40;3.10;;;21.00;83.40;;;;;;10326547;28;20670;-34
2021/07/26 17:13:31;;;;;;;3.13;2.70;;;21.00;83.20;;;;;;10328049;28;20195;-35
2021/07/26 17:18:53;;;;;;;2.90;2.60;;;21.00;83.10;;;;;;10335982;28;20223;-35
2021/07/26 17:24:17;;;;;;;3.53;3.23;;;21.00;83.30;;;;;;10327093;28;20191;-36
2021/07/26 17:29:39;;;;;;;3.53;2.90;;;21.00;83.30;;;;;;10330359;28;20638;-35
2021/07/26 17:35:01;;;;;;;3.30;2.80;;;20.90;83.60;;;;;;10334575;28;20832;-36
2021/07/26 17:40:24;;;;;;;3.33;2.97;;;21.00;83.10;;;;;;10331859;28;20780;-35
2021/07/26 17:45:46;;;;;;;3.30;3.00;;;20.90;83.20;;;;;;10331439;28;20204;-32
2021/07/26 17:51:08;;;;;;;2.80;2.60;;;20.90;83.00;;;;;;10337836;28;20226;-35
2021/07/26 17:56:32;;;;;;;3.70;2.50;;;20.90;83.10;;;;;;10354617;28;20684;-33
2021/07/26 18:01:54;;;;;;;2.90;2.50;;;20.90;82.90;;;;;;10354592;28;20233;-31
2021/07/26 18:07:19;;;;;;;3.53;2.70;;;20.90;83.10;;;;;;10351676;28;20191;-33
2021/07/26 18:12:42;;;;;;;3.67;2.67;;;20.90;83.00;;;;;;10350060;28;20276;-33
2021/07/26 18:18:04;;;;;;;4.60;2.67;;;20.90;83.10;;;;;;10350310;28;20198;-35
2021/07/26 18:23:26;;;;;;;2.53;2.33;;;20.90;83.00;;;;;;10353094;28;20214;-38
2021/07/26 18:28:50;;;;;;;2.63;2.37;;;20.90;82.90;;;;;;10352365;28;20230;-33
2021/07/26 18:39:23;;;;;;;3.87;2.20;;;20.90;82.80;;;;;;10372074;28;20251;-23
2021/07/26 18:44:46;;;;;;;2.53;2.33;;;20.90;82.60;;;;;;10386405;28;20210;-24
2021/07/26 18:50:10;;;;;;;2.70;2.50;;;20.90;82.70;;;;;;10388519;28;20187;-24
2021/07/26 18:55:32;;;;;;;2.80;2.50;;;20.90;82.50;;;;;;10379048;28;20724;-25
2021/07/26 19:00:56;;;;;;;3.03;2.67;;;20.90;82.50;;;;;;10369258;28;20214;-24
2021/07/26 19:06:18;;;;;;;3.10;2.50;;;20.90;82.60;;;;;;10371553;28;20206;-23
2021/07/26 19:11:40;;;;;;;3.50;2.60;;;20.90;82.60;;;;;;10382490;28;20197;-24
2021/07/26 19:17:04;;;;;;;2.40;2.20;;;20.80;82.70;;;;;;10390023;28;20221;-23
2021/07/26 19:22:27;;;;;;;2.77;2.27;;;20.90;82.80;;;;;;10388520;28;20704;-21
2021/07/26 19:27:49;;;;;;;2.90;2.33;;;20.90;82.80;;;;;;10391060;28;20594;-21
2021/07/26 19:33:13;;;;;;;2.70;2.50;;;20.90;82.80;;;;;;10374725;28;20665;-22
2021/07/26 19:38:36;;;;;;;2.70;2.30;;;20.90;82.90;;;;;;10387976;28;20697;-24
2021/07/26 19:43:59;;;;;;;2.60;2.40;;;20.90;82.90;;;;;;10383091;28;20689;-21
2021/07/26 19:49:23;;;;;;;2.77;2.40;;;20.90;83.00;;;;;;10388401;28;20680;-21
2021/07/26 19:54:45;;;;;;;3.50;2.50;;;20.90;82.90;;;;;;10387790;28;20210;-23
2021/07/26 20:00:08;;;;;;;2.73;2.50;;;20.90;82.90;;;;;;10389831;28;20218;-24
2021/07/26 20:05:35;;;;;;;2.80;2.60;;;20.90;82.90;;;;;;10384668;28;20219;-25
2021/07/26 20:10:57;;;;;;;2.90;2.47;;;20.90;82.90;;;;;;10366151;28;20255;-24
2021/07/26 20:16:19;;;;;;;2.83;2.40;;;20.90;83.00;;;;;;10370040;28;20217;-25
2021/07/26 20:21:42;;;;;;;2.60;2.10;;;20.90;82.90;;;;;;10368306;28;20218;-23
2021/07/26 20:27:05;;;;;;;2.80;2.37;;;20.90;83.10;;;;;;10367478;28;20577;-23
2021/07/26 20:32:28;;;;;;;2.13;1.90;;;20.90;83.10;;;;;;10369144;28;20191;-23
2021/07/26 20:37:51;;;;;;;2.83;2.33;;;20.90;83.20;;;;;;10367948;28;20222;-25
2021/07/26 20:43:13;;;;;;;2.70;2.50;;;20.90;83.10;;;;;;10332781;28;20723;-24
2021/07/26 20:48:35;;;;;;;3.67;2.83;;;20.90;83.70;;;;;;10373246;28;20696;-24
2021/07/26 20:53:59;;;;;;;3.47;2.93;;;20.90;83.10;;;;;;10408708;28;20546;-26
2021/07/26 20:59:21;;;;;;;4.57;3.10;;;20.90;83.20;;;;;;10390631;28;20586;-24
2021/07/26 21:04:43;;;;;;;4.80;4.00;;;20.90;83.30;;;;;;10374040;28;20644;-25
2021/07/26 21:10:08;;;;;;;5.47;4.37;;;20.90;83.50;;;;;;10393793;28;20573;-24
2021/07/26 21:15:34;;;;;;;5.60;4.43;;;20.80;83.50;;;;;;10403487;28;20221;-23
2021/07/26 21:20:56;;;;;;;7.47;4.40;;;20.80;83.60;;;;;;10393029;28;20210;-23
2021/07/26 21:26:19;;;;;;;6.83;4.53;;;20.90;83.80;;;;;;10382850;28;20225;-24
2021/07/26 21:31:41;;;;;;;5.67;4.30;;;20.80;83.80;;;;;;10416267;28;20194;-23
2021/07/26 21:37:04;;;;;;;5.17;4.03;;;20.80;83.70;;;;;;10399409;28;20709;-24
2021/07/26 21:42:28;;;;;;;5.60;3.90;;;20.80;83.80;;;;;;10412830;28;20224;-24
2021/07/26 21:47:51;;;;;;;4.57;3.77;;;20.80;83.70;;;;;;10415541;28;20222;-24
2021/07/26 21:53:13;;;;;;;4.37;3.70;;;20.80;83.60;;;;;;10414269;28;20226;-24
2021/07/26 21:58:36;;;;;;;5.10;3.90;;;20.80;83.50;;;;;;10407589;28;20265;-23
2021/07/26 22:03:58;;;;;;;5.43;3.63;;;20.80;83.40;;;;;;10379868;28;20717;-23
2021/07/26 22:09:20;;;;;;;4.20;3.70;;;20.80;83.30;;;;;;10375062;28;20207;-23
2021/07/26 22:14:44;;;;;;;4.50;3.50;;;20.80;83.80;;;;;;10386720;28;20217;-23
2021/07/26 22:20:07;;;;;;;4.23;3.40;;;20.80;83.00;;;;;;10412389;28;20198;-24
2021/07/26 22:25:29;;;;;;;5.47;3.80;;;20.80;83.00;;;;;;10374509;28;20219;-23
2021/07/26 22:30:52;;;;;;;4.07;3.37;;;20.80;83.00;;;;;;10373649;28;20195;-24
2021/07/26 22:36:14;;;;;;;3.63;3.23;;;20.80;82.90;;;;;;10398501;28;20236;-24
2021/07/26 22:41:36;;;;;;;4.90;3.37;;;20.80;82.90;;;;;;10373666;28;20214;-24
2021/07/26 22:47:00;;;;;;;3.87;3.47;;;20.80;83.10;;;;;;10373260;28;20221;-24
2021/07/26 22:52:23;;;;;;;4.43;3.07;;;20.80;83.10;;;;;;10375557;28;20198;-25
2021/07/26 22:57:46;;;;;;;4.30;3.43;;;20.80;83.10;;;;;;10409757;28;20213;-24
2021/07/26 23:03:09;;;;;;;5.17;3.40;;;20.80;83.10;;;;;;10371072;28;20214;-23
2021/07/26 23:08:31;;;;;;;5.20;3.50;;;20.80;83.10;;;;;;10373769;28;20217;-24
2021/07/26 23:13:53;;;;;;;3.40;3.10;;;20.80;83.10;;;;;;10412191;28;20565;-23
2021/07/26 23:19:16;;;;;;;6.50;3.77;;;20.80;83.30;;;;;;10386946;28;20198;-23
2021/07/26 23:24:39;;;;;;;4.73;3.00;;;20.80;84.00;;;;;;10371313;28;20226;-24
2021/07/26 23:30:01;;;;;;;5.00;3.13;;;20.80;84.60;;;;;;10376472;28;20209;-24
2021/07/26 23:35:24;;;;;;;4.50;3.30;;;20.80;85.00;;;;;;10369772;28;20598;-23
2021/07/26 23:40:46;;;;;;;5.07;3.33;;;20.80;85.30;;;;;;10383910;28;20221;-23
2021/07/26 23:46:09;;;;;;;4.07;3.17;;;20.80;85.30;;;;;;10394094;28;20229;-24
2021/07/26 23:51:32;;;;;;;3.67;3.33;;;20.80;85.30;;;;;;10372525;28;20197;-23
2021/07/26 23:56:54;;;;;;;6.43;3.27;;;20.80;85.30;;;;;;10387877;28;20218;-26
